Time;durP1;ratioP1;P1;durP2;ratioP2;P2;SDS_P1;SDS_P2;PMS_P1;PMS_P2;Temp;Humidity;BMP_temperature;BMP_pressure;BME280_temperature;BME280_humidity;BME280_pressure;Samples;Min_cycle;Max_cycle;Signal;HPM_P1;HPM_P2
2023/03/31 00:01:12;;;;;;;12.13;2.80;;;12.40;54.50;;;;;;5115386;28;20504;-74
2023/03/31 00:03:42;;;;;;;10.60;2.50;;;12.40;54.60;;;;;;5115425;28;20050;-74
2023/03/31 00:06:10;;;;;;;11.48;3.42;;;12.30;54.70;;;;;;5114683;28;20024;-74
2023/03/31 00:08:39;;;;;;;13.60;3.40;;;12.40;54.80;;;;;;5096844;28;20047;-74
2023/03/31 00:11:06;;;;;;;13.43;3.13;;;12.40;54.90;;;;;;5114912;28;20025;-74
2023/03/31 00:13:31;;;;;;;13.18;3.28;;;12.40;54.70;;;;;;5115108;28;20031;-73
2023/03/31 00:16:03;;;;;;;10.25;2.90;;;12.40;54.60;;;;;;5114917;28;20020;-74
2023/03/31 00:18:29;;;;;;;10.77;3.10;;;12.40;54.60;;;;;;5115110;28;20058;-74
2023/03/31 00:21:05;;;;;;;10.60;2.65;;;12.40;54.10;;;;;;5114977;28;20027;-74
2023/03/31 00:23:31;;;;;;;9.13;2.13;;;12.40;54.40;;;;;;5114870;28;20028;-73
2023/03/31 00:25:56;;;;;;;9.43;2.50;;;12.40;54.30;;;;;;5113644;28;20495;-74
2023/03/31 00:28:22;;;;;;;10.38;2.88;;;12.40;54.60;;;;;;5114809;28;20059;-75
2023/03/31 00:30:48;;;;;;;5.93;2.33;;;12.50;54.20;;;;;;5118970;28;20503;-75
2023/03/31 00:33:14;;;;;;;13.48;3.55;;;12.40;54.10;;;;;;5115887;28;20027;-73
2023/03/31 00:35:39;;;;;;;8.75;2.55;;;12.40;53.90;;;;;;5114767;28;20026;-74
2023/03/31 00:38:07;;;;;;;12.63;3.00;;;12.40;53.70;;;;;;5114692;28;20490;-74
2023/03/31 00:40:34;;;;;;;11.52;3.08;;;12.40;52.60;;;;;;5114692;28;20552;-74
2023/03/31 00:42:59;;;;;;;13.48;3.67;;;12.50;52.20;;;;;;5114432;28;20016;-74
2023/03/31 00:45:29;;;;;;;9.35;3.15;;;12.50;51.20;;;;;;5114142;28;20088;-74
2023/03/31 00:48:12;;;;;;;12.95;3.20;;;12.50;51.30;;;;;;5114428;28;20028;-74
2023/03/31 00:50:47;;;;;;;11.75;3.33;;;12.50;51.20;;;;;;5114254;28;20413;-74
2023/03/31 00:53:18;;;;;;;6.82;3.03;;;12.60;50.90;;;;;;5095959;28;20065;-74
2023/03/31 00:56:07;;;;;;;12.88;3.45;;;12.70;50.90;;;;;;5114300;28;20007;-74
2023/03/31 00:58:33;;;;;;;12.18;2.92;;;12.70;50.90;;;;;;5114146;28;20110;-74
2023/03/31 01:01:02;;;;;;;12.98;3.42;;;12.70;50.90;;;;;;5114014;28;20541;-73
2023/03/31 01:03:32;;;;;;;15.73;3.70;;;12.70;50.40;;;;;;5114223;28;20031;-72
2023/03/31 01:06:02;;;;;;;7.03;2.50;;;12.70;50.90;;;;;;5113935;28;20023;-72
2023/03/31 01:08:29;;;;;;;11.55;3.28;;;12.70;51.10;;;;;;5114078;28;20062;-74
2023/03/31 01:11:05;;;;;;;10.73;3.13;;;12.70;51.30;;;;;;5113816;28;20500;-73
2023/03/31 01:13:33;;;;;;;16.88;4.03;;;12.80;51.70;;;;;;5113962;28;20020;-74
2023/03/31 01:15:59;;;;;;;10.45;3.67;;;12.70;52.20;;;;;;5113820;28;20028;-73
2023/03/31 01:18:26;;;;;;;11.43;3.50;;;12.70;53.10;;;;;;5113772;28;20019;-74
2023/03/31 01:21:29;;;;;;;12.73;3.33;;;12.70;53.10;;;;;;5113931;28;20023;-74
2023/03/31 01:24:30;;;;;;;11.38;3.70;;;12.60;53.30;;;;;;5116988;27;20054;-74
2023/03/31 01:27:08;;;;;;;12.77;3.97;;;12.50;53.30;;;;;;5134382;27;20084;-74
2023/03/31 01:30:01;;;;;;;13.57;3.72;;;12.50;53.80;;;;;;5133620;27;20030;-74
2023/03/31 01:33:09;;;;;;;13.45;4.00;;;12.50;53.70;;;;;;5134270;27;20023;-74
2023/03/31 01:35:45;;;;;;;13.20;4.25;;;12.40;55.30;;;;;;5134178;27;20023;-74
2023/03/31 01:38:23;;;;;;;;;;;12.30;56.20;;;;;;5115767;27;20505;-74
2023/03/31 01:41:06;;;;;;;8.95;4.00;;;12.20;56.00;;;;;;5134107;27;19956;-74
2023/03/31 01:43:41;;;;;;;13.88;3.65;;;12.10;57.20;;;;;;5134053;27;20047;-74
2023/03/31 01:46:28;;;;;;;9.10;3.83;;;12.10;58.40;;;;;;5133924;27;20050;-74
2023/03/31 01:49:16;;;;;;;14.23;3.78;;;11.90;60.40;;;;;;5134281;27;20073;-74
2023/03/31 01:51:53;;;;;;;15.52;4.05;;;11.70;61.70;;;;;;5134570;28;20021;-74
2023/03/31 01:54:27;;;;;;;13.15;4.40;;;11.70;62.50;;;;;;5115675;28;20122;-74
2023/03/31 01:57:22;;;;;;;11.13;4.00;;;11.60;64.10;;;;;;5133873;28;20031;-74
2023/03/31 02:00:08;;;;;;;12.60;4.20;;;11.50;65.90;;;;;;5134098;28;20023;-73
2023/03/31 02:03:04;;;;;;;12.13;3.83;;;11.20;67.90;;;;;;5133983;28;20023;-74
2023/03/31 02:05:46;;;;;;;;;;;11.20;68.80;;;;;;5107818;28;20035;-74
2023/03/31 02:08:20;;;;;;;9.55;3.75;;;11.10;69.30;;;;;;5133942;28;19911;-73
2023/03/31 02:10:47;;;;;;;17.60;5.10;;;11.00;70.20;;;;;;5133807;28;20034;-73
2023/03/31 02:13:15;;;;;;;9.05;4.05;;;10.90;71.30;;;;;;5133805;28;20029;-74
2023/03/31 02:15:46;;;;;;;11.05;3.72;;;10.80;72.00;;;;;;5133650;28;20422;-73
2023/03/31 02:18:16;;;;;;;9.43;3.58;;;10.90;73.20;;;;;;5133819;28;20367;-73
2023/03/31 02:20:44;;;;;;;9.52;4.28;;;10.90;73.10;;;;;;5133711;28;20090;-73
2023/03/31 02:23:14;;;;;;;12.57;3.90;;;10.90;72.80;;;;;;5133553;28;20106;-73
2023/03/31 02:25:47;;;;;;;10.55;4.28;;;11.00;72.60;;;;;;5133750;28;20049;-73
2023/03/31 02:28:19;;;;;;;11.95;3.72;;;11.00;72.80;;;;;;5133751;28;20027;-73
2023/03/31 02:31:06;;;;;;;11.68;4.65;;;11.10;72.90;;;;;;5115050;28;20387;-73
2023/03/31 02:33:32;;;;;;;7.78;3.65;;;11.00;73.70;;;;;;5133277;28;20537;-73
2023/03/31 02:35:58;;;;;;;10.32;3.60;;;11.10;74.50;;;;;;5133595;28;20066;-73
2023/03/31 02:38:24;;;;;;;11.18;3.95;;;11.00;74.40;;;;;;5133520;28;20023;-73
2023/03/31 02:40:50;;;;;;;10.70;4.13;;;11.10;74.90;;;;;;5133469;28;20072;-74
2023/03/31 02:43:16;;;;;;;8.07;3.30;;;11.00;75.90;;;;;;5133596;28;20106;-73
2023/03/31 02:45:50;;;;;;;9.95;3.75;;;10.90;76.50;;;;;;5133302;28;20044;-73
2023/03/31 02:48:21;;;;;;;10.05;3.67;;;10.90;77.50;;;;;;5134516;27;20092;-74
2023/03/31 02:51:24;;;;;;;9.13;3.65;;;10.80;77.80;;;;;;5136139;27;20371;-73
2023/03/31 02:54:19;;;;;;;13.30;4.22;;;10.70;79.00;;;;;;5120568;27;20019;-73
2023/03/31 02:57:14;;;;;;;11.93;4.65;;;10.70;79.50;;;;;;5137449;27;20019;-74
2023/03/31 03:00:13;;;;;;;7.10;3.08;;;10.60;79.70;;;;;;5136915;27;20084;-74
2023/03/31 03:03:17;;;;;;;9.43;3.92;;;10.50;79.10;;;;;;5137161;27;20019;-74
2023/03/31 03:06:16;;;;;;;12.27;4.03;;;10.40;77.90;;;;;;5136301;27;20035;-74
2023/03/31 03:08:59;;;;;;;12.57;4.22;;;10.30;76.50;;;;;;5118716;27;20383;-74
2023/03/31 03:11:29;;;;;;;12.65;4.47;;;10.20;76.60;;;;;;5137528;27;20026;-74
2023/03/31 03:14:22;;;;;;;13.25;4.15;;;10.20;76.50;;;;;;5138063;27;20054;-73
2023/03/31 03:16:57;;;;;;;8.60;3.40;;;10.20;78.90;;;;;;5136760;27;20015;-73
2023/03/31 03:19:23;;;;;;;9.33;4.23;;;10.00;79.20;;;;;;5118269;27;20026;-74
2023/03/31 03:21:49;;;;;;;13.25;4.20;;;10.00;79.20;;;;;;5136849;27;20031;-73
2023/03/31 03:24:16;;;;;;;13.82;4.03;;;9.90;78.80;;;;;;5136670;27;20054;-73
2023/03/31 03:26:43;;;;;;;10.88;4.15;;;9.80;78.60;;;;;;5136629;27;20114;-75
2023/03/31 03:29:12;;;;;;;12.15;4.05;;;9.80;78.60;;;;;;5136615;27;20026;-74
2023/03/31 03:31:38;;;;;;;11.00;4.00;;;9.90;78.10;;;;;;5136516;27;20019;-75
2023/03/31 03:34:03;;;;;;;11.95;4.65;;;9.80;78.30;;;;;;5136407;27;20023;-73
2023/03/31 03:36:29;;;;;;;11.55;3.95;;;9.80;78.40;;;;;;5136327;27;20015;-73
2023/03/31 03:38:54;;;;;;;16.20;4.70;;;9.70;79.10;;;;;;5136361;27;20027;-73
2023/03/31 03:41:20;;;;;;;9.77;3.80;;;9.70;79.50;;;;;;5136370;27;20103;-72
2023/03/31 03:43:45;;;;;;;15.82;4.97;;;9.50;79.70;;;;;;5136232;27;20023;-73
2023/03/31 03:46:11;;;;;;;14.05;4.22;;;9.50;80.20;;;;;;5135940;27;20084;-73
2023/03/31 03:48:36;;;;;;;13.93;4.55;;;9.40;80.60;;;;;;5136192;27;20503;-74
2023/03/31 03:51:02;;;;;;;14.73;4.57;;;9.40;80.70;;;;;;5135974;27;20096;-73
2023/03/31 03:53:28;;;;;;;13.13;4.20;;;9.40;80.40;;;;;;5135899;27;20019;-74
2023/03/31 03:55:53;;;;;;;13.52;4.40;;;9.40;81.00;;;;;;5135727;27;20378;-76
2023/03/31 03:58:19;;;;;;;13.43;4.65;;;9.40;80.20;;;;;;5136043;27;20026;-73
2023/03/31 04:00:46;;;;;;;10.45;4.18;;;9.40;80.40;;;;;;5135549;27;20031;-72
2023/03/31 04:03:12;;;;;;;9.63;4.30;;;9.50;79.90;;;;;;5135557;27;20042;-73
2023/03/31 04:05:38;;;;;;;11.25;4.22;;;9.50;79.00;;;;;;5135917;27;20030;-74
2023/03/31 04:08:05;;;;;;;10.77;4.60;;;9.50;78.80;;;;;;5135599;27;20038;-72
2023/03/31 04:10:30;;;;;;;15.27;4.45;;;9.60;78.50;;;;;;5135630;27;20475;-74
2023/03/31 04:12:56;;;;;;;12.07;3.90;;;9.60;78.30;;;;;;5135303;27;20034;-73
2023/03/31 04:15:22;;;;;;;15.50;5.07;;;9.60;78.20;;;;;;5117179;27;20473;-73
2023/03/31 04:17:49;;;;;;;14.88;4.55;;;9.60;78.30;;;;;;5135465;27;20055;-72
2023/03/31 04:20:15;;;;;;;12.82;5.10;;;9.50;78.70;;;;;;5135363;27;20023;-73
2023/03/31 04:22:41;;;;;;;12.63;4.80;;;9.50;78.50;;;;;;5135484;27;20016;-73
2023/03/31 04:25:13;;;;;;;12.07;4.35;;;9.50;78.80;;;;;;5135372;27;20023;-72
2023/03/31 04:27:45;;;;;;;14.57;5.43;;;9.50;78.70;;;;;;5135262;27;20447;-73
2023/03/31 04:30:12;;;;;;;16.33;5.75;;;9.40;79.00;;;;;;5134915;27;20108;-73
2023/03/31 04:32:38;;;;;;;11.88;4.88;;;9.40;79.40;;;;;;5135113;27;20015;-73
2023/03/31 04:35:03;;;;;;;10.60;4.30;;;9.40;79.60;;;;;;5135307;27;20047;-73
2023/03/31 04:37:33;;;;;;;12.95;4.60;;;9.40;79.60;;;;;;5135132;27;20540;-72
2023/03/31 04:40:03;;;;;;;13.10;4.60;;;9.50;79.90;;;;;;5135001;27;20046;-72
2023/03/31 04:42:28;;;;;;;13.00;4.45;;;9.60;79.40;;;;;;5136608;27;20495;-73
2023/03/31 04:44:54;;;;;;;9.73;4.00;;;9.70;79.40;;;;;;5135990;27;20031;-73
2023/03/31 04:47:19;;;;;;;9.82;4.78;;;9.80;79.10;;;;;;5134601;27;20035;-72
2023/03/31 04:49:45;;;;;;;11.30;4.70;;;9.80;79.30;;;;;;5134867;27;20443;-73
2023/03/31 04:52:10;;;;;;;16.15;5.20;;;9.80;79.60;;;;;;5116527;27;20065;-73
2023/03/31 04:54:36;;;;;;;13.73;5.40;;;9.80;80.40;;;;;;5134671;27;20023;-74
2023/03/31 04:57:01;;;;;;;10.05;4.25;;;9.80;80.90;;;;;;5134636;27;20059;-72
2023/03/31 04:59:27;;;;;;;18.30;5.43;;;9.70;81.30;;;;;;5134536;27;20051;-73
2023/03/31 05:01:55;;;;;;;11.88;5.30;;;9.70;81.90;;;;;;5134673;27;20019;-75
2023/03/31 05:04:20;;;;;;;13.32;5.22;;;9.70;81.90;;;;;;5134583;27;20082;-73
2023/03/31 05:06:46;;;;;;;14.52;4.97;;;9.70;81.70;;;;;;5134879;27;20079;-73
2023/03/31 05:09:12;;;;;;;14.35;5.85;;;9.70;81.70;;;;;;5135696;27;20034;-73
2023/03/31 05:11:37;;;;;;;13.57;5.57;;;9.60;81.80;;;;;;5134214;27;20020;-74
2023/03/31 05:14:03;;;;;;;17.45;5.45;;;9.60;82.30;;;;;;5133759;27;20023;-74
2023/03/31 05:16:28;;;;;;;12.63;4.75;;;9.80;80.30;;;;;;5134041;27;20031;-73
2023/03/31 05:18:54;;;;;;;14.77;5.57;;;9.80;81.10;;;;;;5134279;27;20015;-73
2023/03/31 05:21:21;;;;;;;11.27;4.45;;;10.00;80.00;;;;;;5134088;27;20099;-72
2023/03/31 05:23:47;;;;;;;15.68;5.15;;;10.30;78.70;;;;;;5133884;27;20015;-73
2023/03/31 05:26:13;;;;;;;13.85;4.60;;;10.50;77.70;;;;;;5133685;27;20498;-73
2023/03/31 05:28:38;;;;;;;12.45;5.40;;;10.70;76.30;;;;;;5133191;27;20023;-73
2023/03/31 05:31:06;;;;;;;12.00;4.82;;;10.80;76.30;;;;;;5114643;27;20043;-73
2023/03/31 05:33:32;;;;;;;10.70;5.05;;;10.80;76.50;;;;;;5133643;27;20031;-73
2023/03/31 05:36:01;;;;;;;9.70;4.57;;;10.90;76.70;;;;;;5133652;27;20197;-73
2023/03/31 05:38:30;;;;;;;12.27;4.07;;;11.00;75.80;;;;;;5133892;27;20067;-72
2023/03/31 05:40:56;;;;;;;13.57;4.70;;;10.90;77.20;;;;;;5133689;27;20487;-72
2023/03/31 05:43:22;;;;;;;11.43;4.25;;;10.90;76.60;;;;;;5133970;27;20051;-72
2023/03/31 05:45:47;;;;;;;14.93;4.90;;;10.90;77.20;;;;;;5133878;27;20047;-73
2023/03/31 05:48:13;;;;;;;11.25;4.35;;;10.80;77.40;;;;;;5133943;27;20046;-73
2023/03/31 05:50:38;;;;;;;8.65;3.97;;;10.90;75.60;;;;;;5133632;27;20489;-74
2023/03/31 05:53:04;;;;;;;12.18;5.03;;;11.00;75.50;;;;;;5133986;27;20067;-73
2023/03/31 05:55:29;;;;;;;12.00;4.32;;;11.10;76.90;;;;;;5134029;28;20132;-74
2023/03/31 05:57:55;;;;;;;12.57;4.80;;;11.00;77.80;;;;;;5133736;28;20099;-74
2023/03/31 06:00:21;;;;;;;14.55;4.78;;;10.90;77.40;;;;;;5115287;28;20546;-74
2023/03/31 06:02:47;;;;;;;11.43;4.65;;;10.90;77.80;;;;;;5115366;28;20080;-74
2023/03/31 06:05:12;;;;;;;11.05;4.35;;;10.90;78.70;;;;;;5133874;27;20023;-73
2023/03/31 06:07:38;;;;;;;13.20;4.85;;;10.90;77.80;;;;;;5133635;28;20046;-73
2023/03/31 06:10:06;;;;;;;12.00;4.22;;;10.80;77.40;;;;;;5133653;28;20024;-75
2023/03/31 06:12:32;;;;;;;10.65;4.10;;;10.80;77.10;;;;;;5133650;27;20019;-73
2023/03/31 06:14:57;;;;;;;11.02;3.88;;;10.90;76.60;;;;;;5133594;28;20033;-74
2023/03/31 06:17:26;;;;;;;10.23;3.95;;;10.90;76.40;;;;;;5133438;28;20025;-74
2023/03/31 06:19:52;;;;;;;10.18;3.95;;;10.90;76.90;;;;;;5115038;28;20022;-74
2023/03/31 06:22:17;;;;;;;10.15;3.72;;;10.80;78.20;;;;;;5133411;28;20031;-73
2023/03/31 06:24:43;;;;;;;8.98;3.60;;;10.80;78.10;;;;;;5136257;27;20483;-74
2023/03/31 06:27:08;;;;;;;12.90;4.15;;;10.80;78.40;;;;;;5137278;27;20046;-74
2023/03/31 06:29:34;;;;;;;8.13;3.50;;;10.80;78.20;;;;;;5119088;27;20058;-73
2023/03/31 06:32:00;;;;;;;8.85;3.58;;;10.80;78.50;;;;;;5137475;27;20379;-74
2023/03/31 06:34:25;;;;;;;7.78;3.65;;;10.80;78.70;;;;;;5137356;27;20023;-75
2023/03/31 06:36:52;;;;;;;9.13;3.50;;;10.90;77.50;;;;;;5137450;27;20492;-73
2023/03/31 06:39:17;;;;;;;9.27;3.60;;;11.00;76.50;;;;;;5137600;27;20046;-74
2023/03/31 06:41:43;;;;;;;9.35;3.78;;;11.10;76.70;;;;;;5137385;27;20471;-73
2023/03/31 06:44:09;;;;;;;6.43;3.35;;;11.30;75.20;;;;;;5137308;27;20471;-73
2023/03/31 06:46:35;;;;;;;7.32;3.20;;;11.30;77.30;;;;;;5136754;27;20047;-74
2023/03/31 06:49:00;;;;;;;11.45;4.18;;;11.40;77.30;;;;;;5137330;27;20088;-73
2023/03/31 06:51:26;;;;;;;14.00;4.18;;;11.30;76.40;;;;;;5137119;27;20467;-73
2023/03/31 06:53:51;;;;;;;9.63;3.55;;;11.30;78.10;;;;;;5137141;27;20034;-74
2023/03/31 06:56:17;;;;;;;4.65;1.73;;;11.00;79.10;;;;;;5118775;27;20401;-72
2023/03/31 06:58:43;;;;;;;5.43;1.40;;;10.40;78.10;;;;;;5118528;27;20027;-74
2023/03/31 07:01:09;;;;;;;3.50;1.77;;;9.90;80.20;;;;;;5136830;27;20075;-73
2023/03/31 07:03:35;;;;;;;5.32;1.58;;;9.70;81.60;;;;;;5137683;27;20046;-74
2023/03/31 07:06:01;;;;;;;5.97;2.05;;;9.40;83.40;;;;;;5136737;27;20019;-75
2023/03/31 07:08:27;;;;;;;4.10;1.45;;;9.30;84.90;;;;;;5136345;27;20031;-81
2023/03/31 07:10:56;;;;;;;4.95;2.00;;;9.20;84.90;;;;;;5136624;27;20019;-75
2023/03/31 07:13:23;;;;;;;7.90;1.35;;;9.20;85.20;;;;;;5118211;27;20043;-74
2023/03/31 07:15:49;;;;;;;6.32;1.13;;;9.20;82.80;;;;;;5136802;27;20490;-75
2023/03/31 07:18:16;;;;;;;4.18;1.00;;;9.20;80.10;;;;;;5136540;27;20509;-75
2023/03/31 07:20:43;;;;;;;1.48;0.60;;;9.30;80.50;;;;;;5136661;27;20046;-76
2023/03/31 07:23:08;;;;;;;2.80;0.77;;;9.30;77.10;;;;;;5136601;27;20533;-75
2023/03/31 07:25:35;;;;;;;0.55;0.45;;;9.50;75.60;;;;;;5136547;27;20070;-76
2023/03/31 07:28:02;;;;;;;1.17;0.52;;;9.60;75.60;;;;;;5117856;27;20074;-75
2023/03/31 07:30:27;;;;;;;1.23;0.52;;;9.60;75.60;;;;;;5117900;27;20019;-75
2023/03/31 07:32:53;;;;;;;2.33;0.45;;;9.60;74.80;;;;;;5136210;27;20025;-76
2023/03/31 07:35:20;;;;;;;2.15;0.90;;;9.60;73.50;;;;;;5135834;27;20031;-76
2023/03/31 07:37:47;;;;;;;3.63;1.95;;;9.70;73.60;;;;;;5136139;27;20034;-75
2023/03/31 07:40:16;;;;;;;1.75;0.95;;;9.80;74.90;;;;;;5117522;27;20063;-75
2023/03/31 07:42:42;;;;;;;1.38;0.60;;;9.90;73.60;;;;;;5136200;27;20375;-75
2023/03/31 07:45:08;;;;;;;2.15;0.60;;;10.00;71.70;;;;;;5117315;27;20031;-75
2023/03/31 07:47:34;;;;;;;1.50;0.60;;;10.10;72.30;;;;;;5135875;27;20593;-78
2023/03/31 07:50:00;;;;;;;2.75;0.60;;;10.30;71.40;;;;;;5135956;27;20050;-76
2023/03/31 07:52:28;;;;;;;1.67;0.80;;;10.50;71.70;;;;;;5135947;27;20027;-75
2023/03/31 07:54:54;;;;;;;1.48;0.75;;;10.60;71.00;;;;;;5135905;27;20038;-77
2023/03/31 07:57:20;;;;;;;1.73;0.65;;;10.80;70.50;;;;;;5135940;27;20375;-77
2023/03/31 07:59:46;;;;;;;2.47;1.05;;;10.90;70.20;;;;;;5135813;27;20027;-77
2023/03/31 08:02:13;;;;;;;1.80;0.80;;;11.00;69.50;;;;;;5135960;27;20179;-77
2023/03/31 08:04:42;;;;;;;1.35;0.63;;;11.10;68.10;;;;;;5117134;27;20019;-78
2023/03/31 08:07:12;;;;;;;4.22;1.33;;;11.20;68.70;;;;;;5117374;27;20475;-76
2023/03/31 08:09:37;;;;;;;0.95;0.60;;;11.20;66.30;;;;;;5135740;27;20027;-75
2023/03/31 08:12:04;;;;;;;0.60;0.40;;;11.30;66.90;;;;;;5117569;27;20041;-74
2023/03/31 08:14:30;;;;;;;4.10;0.85;;;11.50;66.80;;;;;;5117387;27;20035;-75
2023/03/31 08:16:56;;;;;;;2.42;0.50;;;11.50;64.30;;;;;;5117083;27;20031;-75
2023/03/31 08:19:23;;;;;;;0.88;0.60;;;11.40;66.90;;;;;;5116756;27;20028;-76
2023/03/31 08:21:50;;;;;;;1.15;0.60;;;11.50;65.10;;;;;;5116995;27;20027;-75
2023/03/31 08:24:15;;;;;;;0.73;0.57;;;11.60;64.20;;;;;;5116984;27;20023;-75
2023/03/31 08:26:41;;;;;;;3.95;0.85;;;11.80;64.30;;;;;;5134982;27;20119;-75
2023/03/31 08:29:07;;;;;;;3.70;0.80;;;11.90;63.80;;;;;;5116616;27;20084;-76
2023/03/31 08:31:32;;;;;;;2.67;0.82;;;12.00;63.40;;;;;;5116551;27;20015;-75
2023/03/31 08:33:58;;;;;;;3.70;0.85;;;12.10;62.90;;;;;;5116686;27;20034;-77
2023/03/31 08:36:25;;;;;;;1.33;0.60;;;12.20;63.50;;;;;;5116729;27;20019;-77
2023/03/31 08:38:53;;;;;;;2.67;1.02;;;12.30;62.50;;;;;;5135116;27;20015;-74
2023/03/31 08:41:37;;;;;;;1.95;0.85;;;12.40;62.50;;;;;;5116665;27;20023;-74
2023/03/31 08:44:19;;;;;;;1.52;0.82;;;12.40;64.10;;;;;;5116082;27;20443;-74
2023/03/31 08:46:46;;;;;;;3.42;1.27;;;12.50;64.00;;;;;;5115395;28;20103;-75
2023/03/31 08:49:18;;;;;;;1.55;0.88;;;12.70;62.80;;;;;;5116307;27;20460;-76
2023/03/31 08:51:51;;;;;;;1.73;1.05;;;12.70;63.20;;;;;;5116663;27;20031;-74
2023/03/31 08:54:32;;;;;;;3.03;0.73;;;12.80;62.40;;;;;;5116355;27;20019;-74
2023/03/31 08:56:59;;;;;;;4.80;1.20;;;12.70;62.70;;;;;;5116299;27;20027;-74
2023/03/31 08:59:33;;;;;;;4.68;1.00;;;12.60;61.90;;;;;;5116444;27;20118;-73
2023/03/31 09:02:32;;;;;;;5.65;1.20;;;12.60;61.20;;;;;;5116208;27;20472;-73
2023/03/31 09:05:43;;;;;;;8.55;1.40;;;12.70;61.70;;;;;;5116267;27;20033;-74
2023/03/31 09:08:11;;;;;;;6.13;1.20;;;12.80;60.80;;;;;;5116243;27;20038;-75
2023/03/31 09:10:58;;;;;;;5.97;1.35;;;12.90;59.50;;;;;;5115780;27;20043;-74
2023/03/31 09:13:57;;;;;;;5.55;1.35;;;13.00;58.10;;;;;;5115851;27;20024;-77
2023/03/31 09:16:29;;;;;;;3.85;1.30;;;13.00;58.00;;;;;;5135307;27;20019;-78
2023/03/31 09:18:59;;;;;;;7.80;1.63;;;13.10;56.30;;;;;;5115747;27;20062;-76
2023/03/31 09:21:32;;;;;;;5.70;1.23;;;13.20;55.20;;;;;;5116092;27;20570;-77
2023/03/31 09:24:19;;;;;;;8.80;1.05;;;13.20;56.60;;;;;;5115860;27;20104;-77
2023/03/31 09:27:01;;;;;;;6.30;1.08;;;13.50;57.10;;;;;;5115577;27;20421;-76
2023/03/31 09:30:00;;;;;;;4.78;1.00;;;13.70;55.10;;;;;;5115655;27;20019;-76
2023/03/31 09:32:29;;;;;;;4.28;1.08;;;13.70;55.70;;;;;;5116024;27;20019;-76
2023/03/31 09:35:00;;;;;;;3.90;0.90;;;13.50;54.50;;;;;;5134221;27;20023;-77
2023/03/31 09:37:29;;;;;;;4.35;0.93;;;13.60;54.20;;;;;;5114920;27;20666;-77
2023/03/31 09:40:06;;;;;;;5.97;1.60;;;13.60;53.00;;;;;;5133602;27;20031;-76
2023/03/31 09:42:33;;;;;;;8.88;1.73;;;13.60;54.10;;;;;;5115661;27;20032;-79
2023/03/31 09:44:59;;;;;;;6.07;1.50;;;13.60;55.10;;;;;;5115489;27;20051;-77
2023/03/31 09:47:37;;;;;;;4.22;1.23;;;13.80;55.10;;;;;;5114609;27;20079;-76
2023/03/31 09:50:05;;;;;;;6.47;1.50;;;13.80;52.80;;;;;;5115617;28;20110;-76
2023/03/31 09:52:34;;;;;;;8.07;1.50;;;13.80;52.60;;;;;;5116535;27;20491;-76
2023/03/31 09:55:02;;;;;;;6.75;1.40;;;13.70;49.90;;;;;;5115617;28;20058;-77
2023/03/31 09:57:37;;;;;;;7.32;1.85;;;13.80;51.10;;;;;;5114923;27;20031;-76
2023/03/31 10:00:17;;;;;;;6.00;1.75;;;14.00;50.70;;;;;;5115120;28;20023;-76
2023/03/31 10:03:01;;;;;;;5.32;1.33;;;14.30;49.80;;;;;;5120880;28;20122;-76
2023/03/31 10:05:42;;;;;;;7.55;1.65;;;14.40;48.40;;;;;;5114396;28;20023;-77
2023/03/31 10:08:16;;;;;;;10.85;1.80;;;14.30;46.90;;;;;;5114361;28;20027;-77
2023/03/31 10:10:46;;;;;;;4.40;1.25;;;14.40;45.40;;;;;;5132535;27;20483;-77
2023/03/31 10:13:16;;;;;;;6.90;1.15;;;14.50;46.00;;;;;;5114381;28;20031;-77
2023/03/31 10:15:42;;;;;;;6.28;1.50;;;14.50;45.20;;;;;;5133116;27;20020;-77
2023/03/31 10:18:17;;;;;;;8.38;1.55;;;14.50;46.00;;;;;;5114762;28;20118;-77
2023/03/31 10:20:47;;;;;;;6.05;1.10;;;14.70;45.40;;;;;;5114799;28;20023;-77
2023/03/31 10:23:17;;;;;;;5.55;1.50;;;14.60;46.30;;;;;;5115020;28;20034;-77
2023/03/31 10:25:45;;;;;;;6.60;1.45;;;14.50;47.00;;;;;;5114354;28;20027;-77
2023/03/31 10:28:14;;;;;;;5.43;1.15;;;14.60;47.40;;;;;;5133110;28;20372;-77
2023/03/31 10:30:56;;;;;;;4.07;1.13;;;14.70;45.80;;;;;;5114767;28;20376;-77
2023/03/31 10:33:25;;;;;;;6.03;1.77;;;14.60;44.30;;;;;;5114861;28;20034;-77
2023/03/31 10:35:57;;;;;;;6.75;1.17;;;14.50;43.20;;;;;;5133178;28;20019;-77
2023/03/31 10:38:30;;;;;;;5.03;1.38;;;14.30;43.90;;;;;;5133270;28;20034;-77
2023/03/31 10:40:57;;;;;;;4.22;1.23;;;14.40;43.00;;;;;;5114789;28;20027;-77
2023/03/31 10:43:29;;;;;;;6.75;1.33;;;14.50;43.50;;;;;;5132719;28;20055;-77
2023/03/31 10:45:59;;;;;;;6.43;1.10;;;14.80;43.70;;;;;;5116851;28;20094;-77
2023/03/31 10:48:33;;;;;;;7.45;1.60;;;15.00;41.60;;;;;;5114364;28;20456;-77
2023/03/31 10:51:12;;;;;;;6.80;1.10;;;15.00;41.00;;;;;;5114267;28;20484;-76
2023/03/31 10:53:47;;;;;;;6.93;1.77;;;14.80;40.90;;;;;;5113875;28;20023;-77
2023/03/31 10:56:21;;;;;;;7.85;1.52;;;14.70;39.40;;;;;;5114165;28;20019;-77
2023/03/31 10:59:05;;;;;;;5.53;1.30;;;14.60;42.00;;;;;;5114433;28;20020;-76
2023/03/31 11:01:49;;;;;;;9.52;1.88;;;14.70;41.50;;;;;;5114492;28;20079;-76
2023/03/31 11:04:45;;;;;;;4.45;1.27;;;15.00;39.80;;;;;;5114301;28;20405;-76
2023/03/31 11:07:35;;;;;;;6.07;1.60;;;15.40;39.50;;;;;;5114467;28;20110;-76
2023/03/31 11:10:22;;;;;;;6.43;1.38;;;15.70;38.70;;;;;;5133059;27;20030;-76
2023/03/31 11:12:57;;;;;;;8.52;1.58;;;15.70;37.60;;;;;;5118764;27;20027;-75
2023/03/31 11:15:45;;;;;;;6.95;1.90;;;15.50;38.50;;;;;;5118255;27;20027;-76
2023/03/31 11:18:29;;;;;;;6.15;1.38;;;15.00;39.40;;;;;;5118168;27;20026;-76
2023/03/31 11:21:05;;;;;;;10.85;1.70;;;15.10;40.50;;;;;;5118302;27;20114;-77
2023/03/31 11:23:56;;;;;;;2.97;0.60;;;15.30;40.20;;;;;;5118488;27;20030;-76
2023/03/31 11:26:32;;;;;;;3.53;1.40;;;14.60;43.50;;;;;;5118138;27;20083;-76
2023/03/31 11:29:10;;;;;;;0.77;0.30;;;13.30;47.70;;;;;;5117804;27;20429;-77
2023/03/31 11:31:43;;;;;;;2.22;0.30;;;11.80;52.90;;;;;;5119480;27;20079;-77
2023/03/31 11:34:24;;;;;;;2.67;0.22;;;11.20;56.00;;;;;;5118162;27;20047;-77
2023/03/31 11:37:40;;;;;;;0.63;0.20;;;10.80;59.60;;;;;;5117672;27;20031;-77
2023/03/31 11:40:23;;;;;;;2.40;1.48;;;10.50;61.20;;;;;;5029778;27;20040;-77
2023/03/31 11:43:15;;;;;;;3.03;0.47;;;10.30;61.50;;;;;;5117670;27;20024;-76
2023/03/31 11:45:51;;;;;;;0.40;0.20;;;10.00;63.60;;;;;;5117435;27;20042;-78
2023/03/31 11:48:56;;;;;;;1.27;0.30;;;9.70;65.90;;;;;;5117577;27;20043;-76
2023/03/31 11:51:39;;;;;;;1.27;0.30;;;9.50;66.80;;;;;;5105227;27;20046;-75
2023/03/31 11:54:11;;;;;;;2.53;0.60;;;9.50;68.10;;;;;;5125541;27;20026;-76
2023/03/31 11:56:40;;;;;;;2.05;0.50;;;9.60;68.70;;;;;;5106049;27;20022;-76
2023/03/31 11:59:06;;;;;;;1.35;0.30;;;9.90;68.00;;;;;;5104620;27;20019;-75
2023/03/31 12:02:13;;;;;;;1.40;0.40;;;10.10;67.00;;;;;;5105810;27;20110;-76
2023/03/31 12:04:48;;;;;;;3.20;0.50;;;10.30;66.90;;;;;;5105555;27;20031;-77
2023/03/31 12:07:28;;;;;;;2.27;0.90;;;10.30;66.20;;;;;;5125680;27;20033;-77
2023/03/31 12:10:15;;;;;;;2.40;0.60;;;10.30;68.10;;;;;;5107280;27;20011;-75
2023/03/31 12:12:49;;;;;;;3.72;0.50;;;10.30;67.50;;;;;;5106905;27;20106;-76
2023/03/31 12:15:28;;;;;;;2.97;0.70;;;10.40;66.80;;;;;;5092483;27;20042;-76
2023/03/31 12:18:08;;;;;;;3.17;0.98;;;10.80;65.90;;;;;;5105999;27;20019;-77
2023/03/31 12:20:41;;;;;;;2.78;0.75;;;11.20;65.30;;;;;;5107169;27;20072;-78
2023/03/31 12:23:20;;;;;;;2.25;0.65;;;11.30;63.00;;;;;;5116940;27;20045;-77
2023/03/31 12:26:32;;;;;;;12.00;5.53;;;11.10;65.70;;;;;;5117845;27;20456;-76
2023/03/31 12:29:03;;;;;;;2.72;0.70;;;11.20;64.40;;;;;;5051985;27;20520;-75
2023/03/31 12:31:31;;;;;;;3.45;0.70;;;11.80;61.90;;;;;;5106515;27;20095;-73
2023/03/31 12:34:06;;;;;;;8.88;1.10;;;12.20;60.10;;;;;;5105840;27;20016;-74
2023/03/31 12:36:56;;;;;;;4.07;1.27;;;12.30;57.80;;;;;;5105786;27;20030;-74
2023/03/31 12:39:39;;;;;;;4.13;1.35;;;12.00;57.70;;;;;;5124339;27;20149;-75
2023/03/31 12:42:27;;;;;;;6.32;1.50;;;11.80;57.80;;;;;;5106019;27;20019;-74
2023/03/31 12:45:09;;;;;;;5.15;1.08;;;11.60;58.60;;;;;;5105829;27;20109;-75
2023/03/31 12:47:38;;;;;;;6.63;1.35;;;11.50;57.60;;;;;;5105731;27;20039;-76
2023/03/31 12:50:12;;;;;;;4.43;0.80;;;11.30;58.70;;;;;;5106479;27;20022;-76
2023/03/31 12:52:54;;;;;;;2.90;0.83;;;11.40;57.70;;;;;;5118272;27;20406;-77
2023/03/31 12:55:54;;;;;;;3.70;0.70;;;11.50;56.60;;;;;;5116423;27;20283;-76
2023/03/31 12:58:35;;;;;;;2.75;0.68;;;11.50;55.00;;;;;;5116211;27;20015;-76
2023/03/31 13:01:09;;;;;;;3.78;0.73;;;11.60;52.00;;;;;;5116420;27;20031;-74
2023/03/31 13:03:38;;;;;;;2.30;0.88;;;11.70;49.80;;;;;;5116118;27;20016;-76
2023/03/31 13:06:05;;;;;;;9.43;0.73;;;11.70;47.90;;;;;;5115978;27;20108;-76
2023/03/31 13:08:56;;;;;;;3.35;0.80;;;11.80;47.50;;;;;;5115490;27;20039;-76
2023/03/31 13:11:36;;;;;;;3.95;0.68;;;11.90;48.00;;;;;;5116416;27;20435;-77
2023/03/31 13:14:27;;;;;;;2.85;0.55;;;12.10;48.50;;;;;;5115612;27;20022;-75